sensor_id;sensor_type;location;lat;lon;timestamp;P1;durP1;ratioP1;P2;durP2;ratioP2
18104;SDS011;9179;50.968;3.134;2023-02-15T00:01:07;23.33;;;19.00;;
18104;SDS011;9179;50.968;3.134;2023-02-15T00:03:35;20.60;;;18.40;;
18104;SDS011;9179;50.968;3.134;2023-02-15T00:06:02;22.00;;;18.67;;
18104;SDS011;9179;50.968;3.134;2023-02-15T00:08:29;21.90;;;19.60;;
18104;SDS011;9179;50.968;3.134;2023-02-15T00:11:03;22.00;;;19.02;;
18104;SDS011;9179;50.968;3.134;2023-02-15T00:13:31;20.05;;;18.05;;
18104;SDS011;9179;50.968;3.134;2023-02-15T00:16:00;22.83;;;19.95;;
18104;SDS011;9179;50.968;3.134;2023-02-15T00:18:30;22.17;;;19.77;;
18104;SDS011;9179;50.968;3.134;2023-02-15T00:20:57;21.80;;;19.17;;
18104;SDS011;9179;50.968;3.134;2023-02-15T00:23:25;21.50;;;19.35;;
18104;SDS011;9179;50.968;3.134;2023-02-15T00:25:55;20.63;;;18.40;;
18104;SDS011;9179;50.968;3.134;2023-02-15T00:28:29;22.35;;;19.92;;
18104;SDS011;9179;50.968;3.134;2023-02-15T00:31:01;21.73;;;18.67;;
18104;SDS011;9179;50.968;3.134;2023-02-15T00:33:31;21.38;;;19.13;;
18104;SDS011;9179;50.968;3.134;2023-02-15T00:35:59;21.23;;;18.15;;
18104;SDS011;9179;50.968;3.134;2023-02-15T00:38:27;20.67;;;18.50;;
18104;SDS011;9179;50.968;3.134;2023-02-15T00:40:55;20.75;;;18.55;;
18104;SDS011;9179;50.968;3.134;2023-02-15T00:43:24;22.95;;;19.00;;
18104;SDS011;9179;50.968;3.134;2023-02-15T00:45:51;20.52;;;18.27;;
18104;SDS011;9179;50.968;3.134;2023-02-15T00:48:18;19.05;;;17.05;;
18104;SDS011;9179;50.968;3.134;2023-02-15T00:50:48;20.40;;;18.08;;
18104;SDS011;9179;50.968;3.134;2023-02-15T00:53:17;20.17;;;18.23;;
18104;SDS011;9179;50.968;3.134;2023-02-15T00:55:44;19.73;;;17.77;;
18104;SDS011;9179;50.968;3.134;2023-02-15T00:58:12;21.05;;;18.85;;
18104;SDS011;9179;50.968;3.134;2023-02-15T01:00:40;18.88;;;16.88;;
18104;SDS011;9179;50.968;3.134;2023-02-15T01:03:08;19.67;;;17.50;;
18104;SDS011;9179;50.968;3.134;2023-02-15T01:05:35;18.00;;;16.17;;
18104;SDS011;9179;50.968;3.134;2023-02-15T01:08:04;19.95;;;17.83;;
18104;SDS011;9179;50.968;3.134;2023-02-15T01:10:31;19.92;;;17.63;;
18104;SDS011;9179;50.968;3.134;2023-02-15T01:13:00;19.40;;;17.40;;
18104;SDS011;9179;50.968;3.134;2023-02-15T01:15:27;19.17;;;17.20;;
18104;SDS011;9179;50.968;3.134;2023-02-15T01:17:54;19.60;;;17.65;;
18104;SDS011;9179;50.968;3.134;2023-02-15T01:20:22;19.40;;;17.42;;
18104;SDS011;9179;50.968;3.134;2023-02-15T01:22:51;19.08;;;17.08;;
18104;SDS011;9179;50.968;3.134;2023-02-15T01:25:21;19.00;;;16.60;;
18104;SDS011;9179;50.968;3.134;2023-02-15T01:27:49;20.55;;;18.35;;
18104;SDS011;9179;50.968;3.134;2023-02-15T01:30:16;21.25;;;18.98;;
18104;SDS011;9179;50.968;3.134;2023-02-15T01:32:43;19.15;;;17.33;;
18104;SDS011;9179;50.968;3.134;2023-02-15T01:35:10;19.52;;;17.45;;
18104;SDS011;9179;50.968;3.134;2023-02-15T01:37:37;19.17;;;17.15;;
18104;SDS011;9179;50.968;3.134;2023-02-15T01:40:05;17.90;;;16.08;;
18104;SDS011;9179;50.968;3.134;2023-02-15T01:42:35;18.80;;;16.90;;
18104;SDS011;9179;50.968;3.134;2023-02-15T01:45:03;18.10;;;16.38;;
18104;SDS011;9179;50.968;3.134;2023-02-15T01:47:33;19.05;;;17.02;;
18104;SDS011;9179;50.968;3.134;2023-02-15T01:50:06;18.05;;;16.15;;
18104;SDS011;9179;50.968;3.134;2023-02-15T01:52:36;17.75;;;15.90;;
18104;SDS011;9179;50.968;3.134;2023-02-15T01:55:07;17.60;;;15.80;;
18104;SDS011;9179;50.968;3.134;2023-02-15T01:57:36;19.27;;;16.77;;
18104;SDS011;9179;50.968;3.134;2023-02-15T02:00:04;18.00;;;16.20;;
18104;SDS011;9179;50.968;3.134;2023-02-15T02:02:33;18.42;;;16.45;;
18104;SDS011;9179;50.968;3.134;2023-02-15T02:05:01;18.42;;;16.73;;
18104;SDS011;9179;50.968;3.134;2023-02-15T02:07:32;18.00;;;16.30;;
18104;SDS011;9179;50.968;3.134;2023-02-15T02:10:02;16.27;;;14.57;;
18104;SDS011;9179;50.968;3.134;2023-02-15T02:12:29;19.50;;;16.42;;
18104;SDS011;9179;50.968;3.134;2023-02-15T02:14:58;17.95;;;16.05;;
18104;SDS011;9179;50.968;3.134;2023-02-15T02:17:28;18.33;;;16.48;;
18104;SDS011;9179;50.968;3.134;2023-02-15T02:20:25;18.58;;;16.70;;
18104;SDS011;9179;50.968;3.134;2023-02-15T02:23:24;17.73;;;15.98;;
18104;SDS011;9179;50.968;3.134;2023-02-15T02:26:18;17.83;;;16.13;;
18104;SDS011;9179;50.968;3.134;2023-02-15T02:29:29;17.30;;;15.65;;
18104;SDS011;9179;50.968;3.134;2023-02-15T02:35:22;16.65;;;15.15;;
18104;SDS011;9179;50.968;3.134;2023-02-15T02:37:57;16.73;;;15.13;;
18104;SDS011;9179;50.968;3.134;2023-02-15T02:40:32;16.58;;;14.98;;
18104;SDS011;9179;50.968;3.134;2023-02-15T02:43:13;16.15;;;14.65;;
18104;SDS011;9179;50.968;3.134;2023-02-15T02:45:47;17.70;;;16.05;;
18104;SDS011;9179;50.968;3.134;2023-02-15T02:48:19;17.15;;;15.38;;
18104;SDS011;9179;50.968;3.134;2023-02-15T02:50:51;16.95;;;15.35;;
18104;SDS011;9179;50.968;3.134;2023-02-15T02:53:18;17.38;;;15.73;;
18104;SDS011;9179;50.968;3.134;2023-02-15T02:55:46;17.05;;;15.30;;
18104;SDS011;9179;50.968;3.134;2023-02-15T02:58:15;16.60;;;14.90;;
18104;SDS011;9179;50.968;3.134;2023-02-15T03:00:48;16.98;;;15.32;;
18104;SDS011;9179;50.968;3.134;2023-02-15T03:03:20;16.33;;;14.80;;
18104;SDS011;9179;50.968;3.134;2023-02-15T03:05:53;16.27;;;14.68;;
18104;SDS011;9179;50.968;3.134;2023-02-15T03:08:24;17.52;;;15.82;;
18104;SDS011;9179;50.968;3.134;2023-02-15T03:10:58;17.17;;;15.68;;
18104;SDS011;9179;50.968;3.134;2023-02-15T03:13:27;16.42;;;14.93;;
18104;SDS011;9179;50.968;3.134;2023-02-15T03:15:55;15.82;;;14.32;;
18104;SDS011;9179;50.968;3.134;2023-02-15T03:18:41;15.70;;;14.13;;
18104;SDS011;9179;50.968;3.134;2023-02-15T03:21:19;16.13;;;14.63;;
18104;SDS011;9179;50.968;3.134;2023-02-15T03:23:51;15.95;;;14.35;;
18104;SDS011;9179;50.968;3.134;2023-02-15T03:26:24;15.68;;;14.23;;
18104;SDS011;9179;50.968;3.134;2023-02-15T03:28:53;16.60;;;14.95;;
18104;SDS011;9179;50.968;3.134;2023-02-15T03:31:23;16.30;;;14.90;;
18104;SDS011;9179;50.968;3.134;2023-02-15T03:33:55;15.02;;;13.55;;
18104;SDS011;9179;50.968;3.134;2023-02-15T03:36:28;16.05;;;14.55;;
18104;SDS011;9179;50.968;3.134;2023-02-15T03:39:08;16.52;;;14.90;;
18104;SDS011;9179;50.968;3.134;2023-02-15T03:41:42;15.73;;;14.32;;
18104;SDS011;9179;50.968;3.134;2023-02-15T03:44:15;16.02;;;14.73;;
18104;SDS011;9179;50.968;3.134;2023-02-15T03:46:47;16.10;;;14.70;;
18104;SDS011;9179;50.968;3.134;2023-02-15T03:49:20;15.50;;;14.07;;
18104;SDS011;9179;50.968;3.134;2023-02-15T03:51:52;15.52;;;14.02;;
18104;SDS011;9179;50.968;3.134;2023-02-15T03:54:22;15.18;;;13.68;;
18104;SDS011;9179;50.968;3.134;2023-02-15T03:57:12;16.08;;;14.50;;
18104;SDS011;9179;50.968;3.134;2023-02-15T03:59:59;16.90;;;15.20;;
18104;SDS011;9179;50.968;3.134;2023-02-15T04:02:50;15.52;;;14.02;;
18104;SDS011;9179;50.968;3.134;2023-02-15T04:05:26;15.23;;;13.82;;
18104;SDS011;9179;50.968;3.134;2023-02-15T04:07:54;16.33;;;14.75;;
18104;SDS011;9179;50.968;3.134;2023-02-15T04:10:21;15.32;;;13.82;;
18104;SDS011;9179;50.968;3.134;2023-02-15T04:13:06;17.42;;;15.65;;
18104;SDS011;9179;50.968;3.134;2023-02-15T04:15:33;16.23;;;14.73;;
18104;SDS011;9179;50.968;3.134;2023-02-15T04:18:17;18.05;;;14.85;;
18104;SDS011;9179;50.968;3.134;2023-02-15T04:20:44;15.95;;;14.43;;
18104;SDS011;9179;50.968;3.134;2023-02-15T04:23:30;15.10;;;13.82;;
18104;SDS011;9179;50.968;3.134;2023-02-15T04:26:15;15.90;;;14.45;;
18104;SDS011;9179;50.968;3.134;2023-02-15T04:28:42;15.40;;;13.90;;
18104;SDS011;9179;50.968;3.134;2023-02-15T04:31:09;14.82;;;13.35;;
18104;SDS011;9179;50.968;3.134;2023-02-15T04:33:36;14.85;;;13.65;;
18104;SDS011;9179;50.968;3.134;2023-02-15T04:36:03;15.70;;;14.40;;
18104;SDS011;9179;50.968;3.134;2023-02-15T04:38:32;15.93;;;14.50;;
18104;SDS011;9179;50.968;3.134;2023-02-15T04:40:59;15.52;;;14.10;;
18104;SDS011;9179;50.968;3.134;2023-02-15T04:43:26;14.88;;;13.57;;
18104;SDS011;9179;50.968;3.134;2023-02-15T04:45:53;15.43;;;13.93;;
18104;SDS011;9179;50.968;3.134;2023-02-15T04:48:20;14.77;;;13.45;;
18104;SDS011;9179;50.968;3.134;2023-02-15T04:50:47;14.88;;;13.60;;
18104;SDS011;9179;50.968;3.134;2023-02-15T04:53:14;16.25;;;14.85;;
18104;SDS011;9179;50.968;3.134;2023-02-15T04:55:43;14.38;;;13.18;;
18104;SDS011;9179;50.968;3.134;2023-02-15T04:58:10;15.65;;;14.32;;
18104;SDS011;9179;50.968;3.134;2023-02-15T05:00:37;14.27;;;12.93;;
18104;SDS011;9179;50.968;3.134;2023-02-15T05:03:04;15.05;;;13.65;;
18104;SDS011;9179;50.968;3.134;2023-02-15T05:05:31;15.98;;;14.38;;
18104;SDS011;9179;50.968;3.134;2023-02-15T05:07:58;14.38;;;13.18;;
18104;SDS011;9179;50.968;3.134;2023-02-15T05:10:25;15.48;;;14.07;;
18104;SDS011;9179;50.968;3.134;2023-02-15T05:12:53;14.25;;;12.75;;
18104;SDS011;9179;50.968;3.134;2023-02-15T05:15:20;14.90;;;13.43;;
18104;SDS011;9179;50.968;3.134;2023-02-15T05:17:47;14.15;;;12.85;;
18104;SDS011;9179;50.968;3.134;2023-02-15T05:20:14;14.30;;;13.00;;
18104;SDS011;9179;50.968;3.134;2023-02-15T05:22:41;14.85;;;13.55;;
18104;SDS011;9179;50.968;3.134;2023-02-15T05:25:09;15.48;;;13.88;;
18104;SDS011;9179;50.968;3.134;2023-02-15T05:27:55;14.50;;;13.20;;
18104;SDS011;9179;50.968;3.134;2023-02-15T05:30:39;14.13;;;13.02;;
18104;SDS011;9179;50.968;3.134;2023-02-15T05:33:06;14.32;;;13.05;;
18104;SDS011;9179;50.968;3.134;2023-02-15T05:35:34;14.57;;;13.23;;
18104;SDS011;9179;50.968;3.134;2023-02-15T05:38:01;15.25;;;13.75;;
18104;SDS011;9179;50.968;3.134;2023-02-15T05:40:28;13.15;;;12.00;;
18104;SDS011;9179;50.968;3.134;2023-02-15T05:42:56;14.85;;;13.55;;
18104;SDS011;9179;50.968;3.134;2023-02-15T05:45:24;13.77;;;12.60;;
18104;SDS011;9179;50.968;3.134;2023-02-15T05:47:51;13.57;;;12.27;;
18104;SDS011;9179;50.968;3.134;2023-02-15T05:50:18;13.38;;;12.18;;
18104;SDS011;9179;50.968;3.134;2023-02-15T05:52:45;15.02;;;13.57;;
18104;SDS011;9179;50.968;3.134;2023-02-15T05:55:12;13.38;;;12.23;;
18104;SDS011;9179;50.968;3.134;2023-02-15T05:57:39;13.10;;;12.00;;
18104;SDS011;9179;50.968;3.134;2023-02-15T06:00:08;13.95;;;12.75;;
18104;SDS011;9179;50.968;3.134;2023-02-15T06:02:36;13.10;;;12.07;;
18104;SDS011;9179;50.968;3.134;2023-02-15T06:05:03;14.90;;;13.50;;
18104;SDS011;9179;50.968;3.134;2023-02-15T06:07:31;13.55;;;12.35;;
18104;SDS011;9179;50.968;3.134;2023-02-15T06:09:58;13.75;;;12.52;;
18104;SDS011;9179;50.968;3.134;2023-02-15T06:12:25;13.88;;;12.77;;
18104;SDS011;9179;50.968;3.134;2023-02-15T06:14:52;13.95;;;12.73;;
18104;SDS011;9179;50.968;3.134;2023-02-15T06:17:20;13.60;;;12.38;;
18104;SDS011;9179;50.968;3.134;2023-02-15T06:19:47;15.57;;;14.13;;
18104;SDS011;9179;50.968;3.134;2023-02-15T06:22:14;13.38;;;12.07;;
18104;SDS011;9179;50.968;3.134;2023-02-15T06:24:41;14.23;;;12.93;;
18104;SDS011;9179;50.968;3.134;2023-02-15T06:27:08;13.35;;;12.25;;
18104;SDS011;9179;50.968;3.134;2023-02-15T06:29:35;11.73;;;10.80;;
18104;SDS011;9179;50.968;3.134;2023-02-15T06:32:02;13.50;;;10.82;;
18104;SDS011;9179;50.968;3.134;2023-02-15T06:34:31;12.82;;;11.65;;
18104;SDS011;9179;50.968;3.134;2023-02-15T06:36:58;12.32;;;11.23;;
18104;SDS011;9179;50.968;3.134;2023-02-15T06:39:25;14.00;;;12.80;;
18104;SDS011;9179;50.968;3.134;2023-02-15T06:41:52;12.50;;;11.45;;
18104;SDS011;9179;50.968;3.134;2023-02-15T06:44:19;12.52;;;11.45;;
18104;SDS011;9179;50.968;3.134;2023-02-15T06:46:46;13.80;;;12.60;;
18104;SDS011;9179;50.968;3.134;2023-02-15T06:49:13;12.50;;;11.48;;
18104;SDS011;9179;50.968;3.134;2023-02-15T06:51:41;13.52;;;11.45;;
18104;SDS011;9179;50.968;3.134;2023-02-15T06:54:08;11.95;;;10.88;;
18104;SDS011;9179;50.968;3.134;2023-02-15T06:56:35;16.35;;;11.20;;
18104;SDS011;9179;50.968;3.134;2023-02-15T06:59:02;11.80;;;10.75;;
18104;SDS011;9179;50.968;3.134;2023-02-15T07:01:29;12.02;;;10.93;;
18104;SDS011;9179;50.968;3.134;2023-02-15T07:03:56;12.05;;;10.88;;
18104;SDS011;9179;50.968;3.134;2023-02-15T07:06:23;11.35;;;10.30;;
18104;SDS011;9179;50.968;3.134;2023-02-15T07:08:51;10.73;;;9.77;;
18104;SDS011;9179;50.968;3.134;2023-02-15T07:11:18;11.77;;;10.77;;
18104;SDS011;9179;50.968;3.134;2023-02-15T07:14:11;12.23;;;10.75;;
18104;SDS011;9179;50.968;3.134;2023-02-15T07:16:38;10.90;;;9.93;;
18104;SDS011;9179;50.968;3.134;2023-02-15T07:19:05;10.75;;;9.73;;
18104;SDS011;9179;50.968;3.134;2023-02-15T07:21:33;11.80;;;10.70;;
18104;SDS011;9179;50.968;3.134;2023-02-15T07:24:01;10.70;;;9.80;;
18104;SDS011;9179;50.968;3.134;2023-02-15T07:26:30;11.45;;;10.35;;
18104;SDS011;9179;50.968;3.134;2023-02-15T07:28:58;11.93;;;10.70;;
18104;SDS011;9179;50.968;3.134;2023-02-15T07:31:25;10.82;;;9.88;;
18104;SDS011;9179;50.968;3.134;2023-02-15T07:33:51;12.93;;;11.60;;
18104;SDS011;9179;50.968;3.134;2023-02-15T07:36:18;10.75;;;9.85;;
18104;SDS011;9179;50.968;3.134;2023-02-15T07:38:45;10.48;;;9.57;;
18104;SDS011;9179;50.968;3.134;2023-02-15T07:41:14;10.90;;;9.95;;
18104;SDS011;9179;50.968;3.134;2023-02-15T07:43:42;11.88;;;10.80;;
18104;SDS011;9179;50.968;3.134;2023-02-15T07:46:12;11.48;;;10.52;;
18104;SDS011;9179;50.968;3.134;2023-02-15T07:48:41;10.82;;;9.90;;
18104;SDS011;9179;50.968;3.134;2023-02-15T07:51:09;11.68;;;10.70;;
18104;SDS011;9179;50.968;3.134;2023-02-15T07:53:37;10.68;;;9.75;;
18104;SDS011;9179;50.968;3.134;2023-02-15T07:56:05;11.30;;;10.15;;
18104;SDS011;9179;50.968;3.134;2023-02-15T07:58:34;10.85;;;9.75;;
18104;SDS011;9179;50.968;3.134;2023-02-15T08:01:17;10.45;;;9.52;;
18104;SDS011;9179;50.968;3.134;2023-02-15T08:03:45;10.15;;;9.02;;
18104;SDS011;9179;50.968;3.134;2023-02-15T08:06:12;10.63;;;9.52;;
18104;SDS011;9179;50.968;3.134;2023-02-15T08:08:39;11.48;;;9.52;;
18104;SDS011;9179;50.968;3.134;2023-02-15T08:11:14;11.45;;;10.25;;
18104;SDS011;9179;50.968;3.134;2023-02-15T08:13:59;9.98;;;8.82;;
18104;SDS011;9179;50.968;3.134;2023-02-15T08:16:29;10.40;;;9.07;;
18104;SDS011;9179;50.968;3.134;2023-02-15T08:19:00;10.07;;;9.18;;
18104;SDS011;9179;50.968;3.134;2023-02-15T08:21:28;16.83;;;10.05;;
18104;SDS011;9179;50.968;3.134;2023-02-15T08:23:56;10.50;;;9.50;;
18104;SDS011;9179;50.968;3.134;2023-02-15T08:26:25;9.93;;;8.93;;
18104;SDS011;9179;50.968;3.134;2023-02-15T08:28:53;11.98;;;9.98;;
18104;SDS011;9179;50.968;3.134;2023-02-15T08:31:22;11.98;;;9.10;;
18104;SDS011;9179;50.968;3.134;2023-02-15T08:33:50;9.93;;;8.93;;
18104;SDS011;9179;50.968;3.134;2023-02-15T08:36:19;10.05;;;8.98;;
18104;SDS011;9179;50.968;3.134;2023-02-15T08:38:48;11.65;;;10.40;;
18104;SDS011;9179;50.968;3.134;2023-02-15T08:41:16;10.35;;;9.38;;
18104;SDS011;9179;50.968;3.134;2023-02-15T08:43:44;11.15;;;8.48;;
18104;SDS011;9179;50.968;3.134;2023-02-15T09:26:37;6.85;;;6.25;;
18104;SDS011;9179;50.968;3.134;2023-02-15T09:29:05;10.73;;;7.80;;
18104;SDS011;9179;50.968;3.134;2023-02-15T09:31:33;7.68;;;7.05;;
18104;SDS011;9179;50.968;3.134;2023-02-15T09:34:06;6.95;;;6.35;;
18104;SDS011;9179;50.968;3.134;2023-02-15T09:36:33;7.50;;;6.85;;
18104;SDS011;9179;50.968;3.134;2023-02-15T09:39:03;8.73;;;7.13;;
18104;SDS011;9179;50.968;3.134;2023-02-15T09:41:39;6.93;;;6.15;;
18104;SDS011;9179;50.968;3.134;2023-02-15T09:44:25;7.65;;;6.90;;
18104;SDS011;9179;50.968;3.134;2023-02-15T09:47:05;8.35;;;6.88;;
18104;SDS011;9179;50.968;3.134;2023-02-15T09:49:46;6.65;;;6.00;;
18104;SDS011;9179;50.968;3.134;2023-02-15T09:52:26;6.15;;;5.55;;
18104;SDS011;9179;50.968;3.134;2023-02-15T09:55:15;9.43;;;6.68;;
18104;SDS011;9179;50.968;3.134;2023-02-15T09:57:54;7.63;;;6.70;;
18104;SDS011;9179;50.968;3.134;2023-02-15T10:00:33;12.27;;;10.05;;
18104;SDS011;9179;50.968;3.134;2023-02-15T10:03:11;12.02;;;11.02;;
18104;SDS011;9179;50.968;3.134;2023-02-15T10:06:04;12.68;;;11.35;;
18104;SDS011;9179;50.968;3.134;2023-02-15T10:08:48;11.95;;;10.88;;
18104;SDS011;9179;50.968;3.134;2023-02-15T10:11:53;11.45;;;10.30;;
18104;SDS011;9179;50.968;3.134;2023-02-15T10:14:36;13.57;;;11.15;;
18104;SDS011;9179;50.968;3.134;2023-02-15T10:17:19;12.50;;;10.68;;
18104;SDS011;9179;50.968;3.134;2023-02-15T10:20:02;12.65;;;11.45;;
18104;SDS011;9179;50.968;3.134;2023-02-15T10:22:42;14.40;;;11.73;;
18104;SDS011;9179;50.968;3.134;2023-02-15T10:25:26;15.05;;;11.25;;
18104;SDS011;9179;50.968;3.134;2023-02-15T10:27:58;13.30;;;11.65;;
18104;SDS011;9179;50.968;3.134;2023-02-15T10:30:33;13.23;;;11.80;;
18104;SDS011;9179;50.968;3.134;2023-02-15T10:33:09;15.43;;;14.02;;
18104;SDS011;9179;50.968;3.134;2023-02-15T10:35:47;14.07;;;12.60;;
18104;SDS011;9179;50.968;3.134;2023-02-15T10:38:25;19.75;;;12.65;;
18104;SDS011;9179;50.968;3.134;2023-02-15T10:41:03;13.27;;;11.95;;
18104;SDS011;9179;50.968;3.134;2023-02-15T10:43:42;15.10;;;12.40;;
18104;SDS011;9179;50.968;3.134;2023-02-15T10:46:25;13.50;;;11.90;;
18104;SDS011;9179;50.968;3.134;2023-02-15T10:49:07;13.27;;;12.00;;
18104;SDS011;9179;50.968;3.134;2023-02-15T10:51:47;13.63;;;12.15;;
18104;SDS011;9179;50.968;3.134;2023-02-15T10:54:28;13.18;;;11.88;;
18104;SDS011;9179;50.968;3.134;2023-02-15T10:57:03;14.07;;;12.63;;
18104;SDS011;9179;50.968;3.134;2023-02-15T10:59:42;12.57;;;11.38;;
18104;SDS011;9179;50.968;3.134;2023-02-15T11:02:23;13.70;;;12.18;;
18104;SDS011;9179;50.968;3.134;2023-02-15T11:04:56;12.75;;;11.65;;
18104;SDS011;9179;50.968;3.134;2023-02-15T11:07:37;14.07;;;12.82;;
18104;SDS011;9179;50.968;3.134;2023-02-15T11:10:11;11.55;;;10.55;;
18104;SDS011;9179;50.968;3.134;2023-02-15T11:12:49;13.07;;;11.90;;
18104;SDS011;9179;50.968;3.134;2023-02-15T11:15:27;12.85;;;11.43;;
18104;SDS011;9179;50.968;3.134;2023-02-15T11:18:02;11.30;;;10.20;;
18104;SDS011;9179;50.968;3.134;2023-02-15T11:20:35;12.38;;;11.07;;
18104;SDS011;9179;50.968;3.134;2023-02-15T11:23:09;11.57;;;10.50;;
18104;SDS011;9179;50.968;3.134;2023-02-15T11:25:41;11.13;;;10.05;;
18104;SDS011;9179;50.968;3.134;2023-02-15T11:28:16;12.88;;;11.77;;
18104;SDS011;9179;50.968;3.134;2023-02-15T11:30:47;13.48;;;12.07;;
18104;SDS011;9179;50.968;3.134;2023-02-15T11:33:20;12.32;;;11.13;;
18104;SDS011;9179;50.968;3.134;2023-02-15T11:35:51;13.25;;;11.95;;
18104;SDS011;9179;50.968;3.134;2023-02-15T11:38:26;12.55;;;11.18;;
18104;SDS011;9179;50.968;3.134;2023-02-15T11:40:59;12.10;;;10.90;;
18104;SDS011;9179;50.968;3.134;2023-02-15T11:43:31;12.30;;;11.18;;
18104;SDS011;9179;50.968;3.134;2023-02-15T11:46:03;12.25;;;11.05;;
18104;SDS011;9179;50.968;3.134;2023-02-15T11:48:32;12.15;;;10.95;;
18104;SDS011;9179;50.968;3.134;2023-02-15T11:50:59;12.15;;;10.95;;
18104;SDS011;9179;50.968;3.134;2023-02-15T11:53:30;11.90;;;10.80;;
18104;SDS011;9179;50.968;3.134;2023-02-15T11:55:59;12.15;;;11.15;;
18104;SDS011;9179;50.968;3.134;2023-02-15T11:58:30;12.13;;;10.90;;
18104;SDS011;9179;50.968;3.134;2023-02-15T12:01:02;12.75;;;10.75;;
18104;SDS011;9179;50.968;3.134;2023-02-15T12:03:42;13.95;;;11.00;;
18104;SDS011;9179;50.968;3.134;2023-02-15T12:06:13;11.80;;;10.60;;
18104;SDS011;9179;50.968;3.134;2023-02-15T12:08:55;10.55;;;9.55;;
18104;SDS011;9179;50.968;3.134;2023-02-15T12:11:29;10.23;;;9.27;;
18104;SDS011;9179;50.968;3.134;2023-02-15T12:14:00;11.93;;;10.63;;
18104;SDS011;9179;50.968;3.134;2023-02-15T12:16:29;10.40;;;9.25;;
18104;SDS011;9179;50.968;3.134;2023-02-15T12:19:12;9.95;;;9.07;;
18104;SDS011;9179;50.968;3.134;2023-02-15T12:21:51;10.60;;;9.38;;
18104;SDS011;9179;50.968;3.134;2023-02-15T12:24:19;16.15;;;10.50;;
18104;SDS011;9179;50.968;3.134;2023-02-15T12:26:55;12.02;;;9.45;;
18104;SDS011;9179;50.968;3.134;2023-02-15T12:29:25;10.18;;;9.30;;
18104;SDS011;9179;50.968;3.134;2023-02-15T12:31:55;17.17;;;13.38;;
18104;SDS011;9179;50.968;3.134;2023-02-15T12:34:25;15.38;;;13.63;;
18104;SDS011;9179;50.968;3.134;2023-02-15T12:36:55;18.48;;;12.15;;
18104;SDS011;9179;50.968;3.134;2023-02-15T12:39:27;13.50;;;12.07;;
18104;SDS011;9179;50.968;3.134;2023-02-15T12:41:59;13.40;;;12.05;;
18104;SDS011;9179;50.968;3.134;2023-02-15T12:44:29;15.30;;;12.13;;
18104;SDS011;9179;50.968;3.134;2023-02-15T12:46:59;13.18;;;11.80;;
18104;SDS011;9179;50.968;3.134;2023-02-15T12:49:29;17.77;;;12.95;;
18104;SDS011;9179;50.968;3.134;2023-02-15T12:51:57;15.25;;;12.45;;
18104;SDS011;9179;50.968;3.134;2023-02-15T12:54:28;15.63;;;12.82;;
18104;SDS011;9179;50.968;3.134;2023-02-15T12:57:13;13.82;;;11.23;;
18104;SDS011;9179;50.968;3.134;2023-02-15T12:59:52;15.35;;;12.02;;
18104;SDS011;9179;50.968;3.134;2023-02-15T13:02:22;12.85;;;11.55;;
18104;SDS011;9179;50.968;3.134;2023-02-15T13:04:54;14.27;;;12.75;;
18104;SDS011;9179;50.968;3.134;2023-02-15T13:07:23;14.73;;;11.45;;
18104;SDS011;9179;50.968;3.134;2023-02-15T13:09:55;13.07;;;11.85;;
18104;SDS011;9179;50.968;3.134;2023-02-15T13:12:23;15.82;;;11.82;;
18104;SDS011;9179;50.968;3.134;2023-02-15T13:14:54;14.35;;;12.50;;
18104;SDS011;9179;50.968;3.134;2023-02-15T13:17:21;13.75;;;12.07;;
18104;SDS011;9179;50.968;3.134;2023-02-15T13:19:56;13.68;;;11.27;;
18104;SDS011;9179;50.968;3.134;2023-02-15T13:22:27;13.50;;;11.68;;
18104;SDS011;9179;50.968;3.134;2023-02-15T13:25:01;12.40;;;11.02;;
18104;SDS011;9179;50.968;3.134;2023-02-15T13:27:35;12.98;;;11.70;;
18104;SDS011;9179;50.968;3.134;2023-02-15T13:30:10;13.05;;;11.23;;
18104;SDS011;9179;50.968;3.134;2023-02-15T13:32:46;12.70;;;11.40;;
18104;SDS011;9179;50.968;3.134;2023-02-15T13:35:18;13.23;;;10.88;;
18104;SDS011;9179;50.968;3.134;2023-02-15T13:40:42;13.23;;;10.93;;
18104;SDS011;9179;50.968;3.134;2023-02-15T13:43:19;17.52;;;12.20;;
18104;SDS011;9179;50.968;3.134;2023-02-15T13:46:01;12.02;;;11.02;;
18104;SDS011;9179;50.968;3.134;2023-02-15T13:48:40;12.55;;;11.27;;
18104;SDS011;9179;50.968;3.134;2023-02-15T13:51:16;11.88;;;10.68;;
18104;SDS011;9179;50.968;3.134;2023-02-15T13:56:48;12.55;;;10.48;;
18104;SDS011;9179;50.968;3.134;2023-02-15T13:59:28;16.35;;;10.20;;
18104;SDS011;9179;50.968;3.134;2023-02-15T14:02:23;13.15;;;11.02;;
18104;SDS011;9179;50.968;3.134;2023-02-15T14:05:15;12.05;;;10.85;;
18104;SDS011;9179;50.968;3.134;2023-02-15T14:08:02;11.68;;;10.52;;
18104;SDS011;9179;50.968;3.134;2023-02-15T14:10:39;12.25;;;10.07;;
18104;SDS011;9179;50.968;3.134;2023-02-15T14:13:32;12.50;;;10.50;;
18104;SDS011;9179;50.968;3.134;2023-02-15T14:16:17;10.85;;;9.88;;
18104;SDS011;9179;50.968;3.134;2023-02-15T14:18:51;11.15;;;9.55;;
18104;SDS011;9179;50.968;3.134;2023-02-15T14:21:26;11.45;;;10.30;;
18104;SDS011;9179;50.968;3.134;2023-02-15T14:24:01;11.50;;;10.38;;
18104;SDS011;9179;50.968;3.134;2023-02-15T14:26:40;11.07;;;9.88;;
18104;SDS011;9179;50.968;3.134;2023-02-15T14:29:20;11.23;;;10.18;;
18104;SDS011;9179;50.968;3.134;2023-02-15T14:31:56;10.15;;;9.15;;
18104;SDS011;9179;50.968;3.134;2023-02-15T14:34:29;11.73;;;10.65;;
18104;SDS011;9179;50.968;3.134;2023-02-15T14:37:02;10.57;;;9.68;;
18104;SDS011;9179;50.968;3.134;2023-02-15T14:39:35;10.50;;;9.40;;
18104;SDS011;9179;50.968;3.134;2023-02-15T14:42:30;9.73;;;8.93;;
18104;SDS011;9179;50.968;3.134;2023-02-15T14:45:04;11.57;;;9.05;;
18104;SDS011;9179;50.968;3.134;2023-02-15T14:47:40;10.43;;;9.43;;
18104;SDS011;9179;50.968;3.134;2023-02-15T14:53:14;10.27;;;9.20;;
18104;SDS011;9179;50.968;3.134;2023-02-15T14:56:06;10.15;;;9.20;;
18104;SDS011;9179;50.968;3.134;2023-02-15T14:59:01;12.80;;;9.70;;
18104;SDS011;9179;50.968;3.134;2023-02-15T15:01:55;10.30;;;9.30;;
18104;SDS011;9179;50.968;3.134;2023-02-15T15:04:25;9.20;;;8.27;;
18104;SDS011;9179;50.968;3.134;2023-02-15T15:07:00;11.35;;;10.25;;
18104;SDS011;9179;50.968;3.134;2023-02-15T15:09:34;10.25;;;9.38;;
18104;SDS011;9179;50.968;3.134;2023-02-15T15:12:18;9.80;;;8.60;;
18104;SDS011;9179;50.968;3.134;2023-02-15T15:15:03;10.77;;;8.55;;
18104;SDS011;9179;50.968;3.134;2023-02-15T15:20:43;9.20;;;8.40;;
18104;SDS011;9179;50.968;3.134;2023-02-15T15:26:23;9.52;;;8.65;;
18104;SDS011;9179;50.968;3.134;2023-02-15T15:28:54;10.63;;;9.32;;
18104;SDS011;9179;50.968;3.134;2023-02-15T15:31:27;9.90;;;8.90;;
18104;SDS011;9179;50.968;3.134;2023-02-15T15:37:17;9.45;;;8.70;;
18104;SDS011;9179;50.968;3.134;2023-02-15T15:40:22;8.90;;;8.13;;
18104;SDS011;9179;50.968;3.134;2023-02-15T15:43:24;9.55;;;8.75;;
18104;SDS011;9179;50.968;3.134;2023-02-15T15:46:23;9.02;;;8.18;;
18104;SDS011;9179;50.968;3.134;2023-02-15T15:49:05;9.68;;;8.68;;
18104;SDS011;9179;50.968;3.134;2023-02-15T15:51:37;9.07;;;8.18;;
18104;SDS011;9179;50.968;3.134;2023-02-15T15:54:11;9.60;;;8.80;;
18104;SDS011;9179;50.968;3.134;2023-02-15T15:56:41;8.52;;;7.72;;
18104;SDS011;9179;50.968;3.134;2023-02-15T15:59:13;9.45;;;7.78;;
18104;SDS011;9179;50.968;3.134;2023-02-15T16:01:46;9.15;;;8.25;;
18104;SDS011;9179;50.968;3.134;2023-02-15T16:04:22;8.60;;;7.88;;
18104;SDS011;9179;50.968;3.134;2023-02-15T16:06:50;8.35;;;7.55;;
18104;SDS011;9179;50.968;3.134;2023-02-15T16:09:19;9.20;;;8.38;;
18104;SDS011;9179;50.968;3.134;2023-02-15T16:11:47;7.72;;;7.07;;
18104;SDS011;9179;50.968;3.134;2023-02-15T16:14:18;9.00;;;8.30;;